Terminal Aerodrome Forecast
Issued by NWS

Current Version | Previous Version | Text Only | Print | Product List | Glossary On
Versions: 1 2 3 4 5 6 7 8 9 10 11 12 13 14 15
000
FTUS44 KJAN 200800 AAB
TAFGTR
TAF AMD
KGTR 200854Z 2009/2106 00000KT 1/4SM FG OVC002
     FM201200 00000KT 3SM BR SCT004
     FM201500 23002KT P6SM SKC=

USA.gov is the U.S. government's official web portal to all federal, state and local government web resources and services.